McAlister, NM (88427)

5:16 PM MDT on August 30, 2014 (GMT -0600)
Tucumcari Municipal | Change Station
CLOSE
Current Station
Airport
Location: Tucumcari,
Elevation: 4065 ft
Nearby Weather Stations

Elev 4065 ft 35.18 °N, 103.60 °W | Updated 23 minutes ago

Scattered Clouds
Scattered Clouds
94 °F
Feels Like 94 °F
N
9
Wind Variable Wind from SSW

Today
High -- | Low -- °F
--% Chance of Precip.
Yesterday
High -- | Low -- °F
Precip. -- in
6:26 AM 7:23 PM
Waxing Crescent, 25% visible
Pressure 29.71 in
Visibility 10.0 miles
Clouds Scattered Clouds 11000 ft
Dew Point 44 °F
Humidity 18%
Rainfall 0.00 in
Snow Depth Not available.
UV 3 out of 12
Pollen 9.70 out of 12
Air Quality Not available.
Flu Activity Not available.
METAR KTCC 302253Z AUTO 21008KT 10SM SCT110 34/07 A2992 RMK AO2 SLP061 T03440067

More Conditions Fewer Conditions

Pressure 29.71 in
Visibility 10.0 miles
Clouds Scattered Clouds 11000 ft
Dew Point 44 °F
Humidity 18%
Rainfall 0.00 in
Snow Depth Not available.
UV 3 out of 12
Pollen 9.70 out of 12
Air Quality Not available.
Flu Activity Not available.
METAR KTCC 302253Z AUTO 21008KT 10SM SCT110 34/07 A2992 RMK AO2 SLP061 T03440067

More Conditions Fewer Conditions

Nowcast | as of 4:47 PM MDT on August 30, 2014

Through 7 PM MDT...isolated showers will continue to develop across the eastern plains of New Mexico and move east at 25 mph. Expect light rain mixed with brief moderate downpours to produce amounts ranging from a trace to several hundredths of an inch. Wind gusts to near 45 mph are possible in the vicinity of this activity. In addition...a rumble of thunder can not be ruled out. Locations that may be impacted include Rosebud...Nara Visa...Tucumcari...San Jon... Fort Sumner...Mesa...Arabela...Roswell and Elkins.

×

10-Day Weather Forecast

Almanac

Astronomy

Aug. 30, 2014 Rise Set
Actual Time 6:26 AM MDT 7:23 PM MDT
Civil Twilight 6:00 AM MDT 7:49 PM MDT
Nautical Twilight 5:29 AM MDT 8:20 PM MDT
Astronomical Twilight 4:58 AM MDT 8:51 PM MDT
Moon 11:02 AM MDT 10:13 PM MDT
Length of Visible Light 13h 49m
Length of Day
12h 57m
Tomorrow will be 2m 4s shorter.
Waxing Crescent, 25% of the Moon is Illuminated
Today
Waxing Crescent
Sep 2
First Quarter
Sep 8
Full
Sep 15
Last Quarter
Sep 24
New

Today's Extremes

State Highs State Lows

Community

WunderPhotos

Upload Photos

1,748,670 photos uploaded!

Nearby

Snow Depth

Station Depth Elevation
Wesner Springs 1 in 11120 ft
Santa Fe 0 in 11445 ft
Tolby 0 in 10180 ft
Sierra Blanca 1 in 10280 ft
Quemazon 0 in 9500 ft

Earthquake Activity

City Distance Mag. Time & Date
No recent earthquake activity has been reported nearby.
Minimum magnitude displayed is 2.5.

Coastal Water Temperatures

Place Temperature
No Stations Reporting

Nearby Weather Stations